F/V Le Dolmen — FHMD — position and weather

sailwx.info

Track history (hours):
 
Tides and Currents Weather Stations Pressure Air Temp Water Temp Dewpoint Dewpoint Depression Visibility Wind Speed Wind Dir Waves Ship Positions

F/V Le Dolmen

Last reported at 2014-Oct-17 02:29 UTC. Time now 2014-Oct-21 07:09 UTC.
Position N 47°44' W 003°22'.

Length 18 m.

Type: Fishing. MMSI: 228374000.

Date/timePositionNaut miles runAvg speedWind from/ knotsBaromVisibWave heightAir tempDewpointWater temp
2014-Oct-17 02:29N 47°44' W 003°22'0 0.0
2014-Oct-17 01:33N 47°44' W 003°22'1 0.9
2014-Oct-17 00:33N 47°43' W 003°22'23 0.8
2014-Oct-15 17:33N 47°20' W 003°27'29 1.3
2014-Oct-14 19:26N 47°19' W 002°44'37 2.7
2014-Oct-14 05:29N 47°40' W 003°30'7 7.4
2014-Oct-14 04:33N 47°44' W 003°22'0 0.0
2014-Oct-14 03:34N 47°44' W 003°22'0 0.0
2014-Oct-14 02:33N 47°44' W 003°22'0 0.0
2014-Oct-14 01:34N 47°44' W 003°22'0 0.0
2014-Oct-14 00:34N 47°44' W 003°22'0 0.0
2014-Oct-13 23:33N 47°44' W 003°22'0 0.0
2014-Oct-13 22:33N 47°44' W 003°22'0 0.0
2014-Oct-13 21:34N 47°44' W 003°22'0 0.0
2014-Oct-13 20:34N 47°44' W 003°22'0 0.0
2014-Oct-13 19:34N 47°44' W 003°22'0 0.0
2014-Oct-13 18:34N 47°44' W 003°22'1 0.7
2014-Oct-13 17:34N 47°43' W 003°22'8 7.3
2014-Oct-13 16:31N 47°39' W 003°31'6 0.6
2014-Oct-13 06:22N 47°38' W 003°23'6 7.2
2014-Oct-13 05:34N 47°44' W 003°22'0 0.0
2014-Oct-13 04:34N 47°44' W 003°22'0 0.0
2014-Oct-13 03:33N 47°44' W 003°22'0 0.0
2014-Oct-13 02:34N 47°44' W 003°22'0 0.0
2014-Oct-13 01:34N 47°44' W 003°22'0 0.0
2014-Oct-13 00:34N 47°44' W 003°22'0 0.0
2014-Oct-12 23:34N 47°44' W 003°22'0 0.0
2014-Oct-12 22:34N 47°44' W 003°22'0 0.2
2014-Oct-12 21:34N 47°44' W 003°22'  
2014-Oct-09 19:16N 47°34' W 003°20'4 5.2
2014-Oct-09 18:33N 47°35' W 003°26'5 4.5
2014-Oct-09 17:28N 47°36' W 003°33'3 2.2
2014-Oct-09 16:06N 47°34' W 003°29'3 1.7
2014-Oct-09 14:27N 47°35' W 003°25'3 3.1
2014-Oct-09 13:33N 47°36' W 003°29'6 1.0
2014-Oct-09 07:33N 47°40' W 003°22'4 3.8
2014-Oct-09 06:33N 47°44' W 003°22'0 0.0
2014-Oct-09 05:33N 47°44' W 003°22'4 3.5
2014-Oct-09 04:33N 47°41' W 003°24'3 0.3
2014-Oct-08 17:11N 47°43' W 003°22'0 0.5
2014-Oct-08 16:33N 47°44' W 003°22'0 0.0
2014-Oct-08 06:17N 47°44' W 003°22'0 0.0
2014-Oct-08 05:34N 47°44' W 003°22'0 0.0
2014-Oct-08 04:34N 47°44' W 003°22'0 0.0
2014-Oct-08 03:34N 47°44' W 003°22'2 2.5
2014-Oct-08 02:33N 47°41' W 003°23'8 4.0
2014-Oct-08 00:31N 47°39' W 003°35'2 0.2
2014-Oct-07 11:06N 47°40' W 003°32'5 8.6
2014-Oct-07 10:34N 47°41' W 003°25'4 3.6
2014-Oct-07 09:34N 47°44' W 003°22'0 0.0
2014-Oct-07 08:34N 47°44' W 003°22'0 0.0
2014-Oct-07 07:34N 47°44' W 003°22'0 0.0
2014-Oct-07 06:34N 47°44' W 003°22'0 0.0
2014-Oct-07 05:34N 47°44' W 003°22'0 0.0
2014-Oct-07 04:34N 47°44' W 003°22'0 0.0
2014-Oct-07 03:34N 47°44' W 003°22'0 0.0
2014-Oct-07 02:34N 47°44' W 003°22'  
Track history (hours):
 
Tides and Currents Weather Stations Pressure Air Temp Water Temp Dewpoint Dewpoint Depression Visibility Wind Speed Wind Dir Waves Ship Positions

F/V Le Dolmen

Last reported at 2014-Oct-17 02:29 UTC. Time now 2014-Oct-21 07:09 UTC.
Position N 47°44' W 003°22'.

Length 18 m.

Type: Fishing. MMSI: 228374000.

Date/timePositionNaut miles runAvg speedWind from/ knotsBaromVisibWave heightAir tempDewpointWater temp
2014-Oct-17 02:29N 47°44' W 003°22'0 0.0
2014-Oct-17 01:33N 47°44' W 003°22'1 0.9
2014-Oct-17 00:33N 47°43' W 003°22'23 0.8
2014-Oct-15 17:33N 47°20' W 003°27'29 1.3
2014-Oct-14 19:26N 47°19' W 002°44'37 2.7
2014-Oct-14 05:29N 47°40' W 003°30'7 7.4
2014-Oct-14 04:33N 47°44' W 003°22'0 0.0
2014-Oct-14 03:34N 47°44' W 003°22'0 0.0
2014-Oct-14 02:33N 47°44' W 003°22'0 0.0
2014-Oct-14 01:34N 47°44' W 003°22'0 0.0
2014-Oct-14 00:34N 47°44' W 003°22'0 0.0
2014-Oct-13 23:33N 47°44' W 003°22'0 0.0
2014-Oct-13 22:33N 47°44' W 003°22'0 0.0
2014-Oct-13 21:34N 47°44' W 003°22'0 0.0
2014-Oct-13 20:34N 47°44' W 003°22'0 0.0
2014-Oct-13 19:34N 47°44' W 003°22'0 0.0
2014-Oct-13 18:34N 47°44' W 003°22'1 0.7
2014-Oct-13 17:34N 47°43' W 003°22'8 7.3
2014-Oct-13 16:31N 47°39' W 003°31'6 0.6
2014-Oct-13 06:22N 47°38' W 003°23'6 7.2
2014-Oct-13 05:34N 47°44' W 003°22'0 0.0
2014-Oct-13 04:34N 47°44' W 003°22'0 0.0
2014-Oct-13 03:33N 47°44' W 003°22'0 0.0
2014-Oct-13 02:34N 47°44' W 003°22'0 0.0
2014-Oct-13 01:34N 47°44' W 003°22'0 0.0
2014-Oct-13 00:34N 47°44' W 003°22'0 0.0
2014-Oct-12 23:34N 47°44' W 003°22'0 0.0
2014-Oct-12 22:34N 47°44' W 003°22'0 0.2
2014-Oct-12 21:34N 47°44' W 003°22'  
2014-Oct-09 19:16N 47°34' W 003°20'4 5.2
2014-Oct-09 18:33N 47°35' W 003°26'5 4.5
2014-Oct-09 17:28N 47°36' W 003°33'3 2.2
2014-Oct-09 16:06N 47°34' W 003°29'3 1.7
2014-Oct-09 14:27N 47°35' W 003°25'3 3.1
2014-Oct-09 13:33N 47°36' W 003°29'6 1.0
2014-Oct-09 07:33N 47°40' W 003°22'4 3.8
2014-Oct-09 06:33N 47°44' W 003°22'0 0.0
2014-Oct-09 05:33N 47°44' W 003°22'4 3.5
2014-Oct-09 04:33N 47°41' W 003°24'3 0.3
2014-Oct-08 17:11N 47°43' W 003°22'0 0.5
2014-Oct-08 16:33N 47°44' W 003°22'0 0.0
2014-Oct-08 06:17N 47°44' W 003°22'0 0.0
2014-Oct-08 05:34N 47°44' W 003°22'0 0.0
2014-Oct-08 04:34N 47°44' W 003°22'0 0.0
2014-Oct-08 03:34N 47°44' W 003°22'2 2.5
2014-Oct-08 02:33N 47°41' W 003°23'8 4.0
2014-Oct-08 00:31N 47°39' W 003°35'2 0.2
2014-Oct-07 11:06N 47°40' W 003°32'5 8.6
2014-Oct-07 10:34N 47°41' W 003°25'4 3.6
2014-Oct-07 09:34N 47°44' W 003°22'0 0.0
2014-Oct-07 08:34N 47°44' W 003°22'0 0.0
2014-Oct-07 07:34N 47°44' W 003°22'0 0.0
2014-Oct-07 06:34N 47°44' W 003°22'0 0.0
2014-Oct-07 05:34N 47°44' W 003°22'0 0.0
2014-Oct-07 04:34N 47°44' W 003°22'0 0.0
2014-Oct-07 03:34N 47°44' W 003°22'0 0.0
2014-Oct-07 02:34N 47°44' W 003°22'  

Dump ship's entire track history